Time;durP1;ratioP1;P1;durP2;ratioP2;P2;SDS_P1;SDS_P2;PMS_P1;PMS_P2;Temp;Humidity;BMP_temperature;BMP_pressure;BME280_temperature;BME280_humidity;BME280_pressure;Samples;Min_cycle;Max_cycle;Signal;HPM_P1;HPM_P2
2024/03/10 00:00:20;;;;;;;0.73;0.73;;;;;;;6.84;68.66;96547.06;6099044;23;20018;-93
2024/03/10 00:02:46;;;;;;;0.80;0.80;;;;;;;6.87;68.37;96554.19;6124965;23;20014;-92
2024/03/10 00:05:15;;;;;;;0.80;0.80;;;;;;;7.28;66.59;96543.91;6098710;23;20008;-92
2024/03/10 00:07:41;;;;;;;0.80;0.80;;;;;;;7.56;65.95;96528.13;6124264;23;20033;-92
2024/03/10 00:10:09;;;;;;;0.80;0.80;;;;;;;7.43;66.60;96535.16;6122639;23;20033;-92
2024/03/10 00:12:35;;;;;;;0.70;0.70;;;;;;;7.33;67.25;96539.50;6124496;23;20446;-90
2024/03/10 00:15:00;;;;;;;0.70;0.70;;;;;;;7.21;67.76;96542.06;6123025;23;20010;-91
2024/03/10 00:17:26;;;;;;;0.80;0.80;;;;;;;7.04;68.50;96546.34;6124640;23;20021;-91
2024/03/10 00:19:52;;;;;;;0.80;0.80;;;;;;;6.86;69.13;96548.00;6126527;23;20018;-91
2024/03/10 00:22:18;;;;;;;0.80;0.80;;;;;;;6.85;69.51;96540.00;6099909;23;20057;-93
2024/03/10 00:24:43;;;;;;;0.70;0.70;;;;;;;6.94;69.43;96542.75;6125152;23;20009;-92
2024/03/10 00:27:11;;;;;;;0.80;0.80;;;;;;;6.96;69.31;96542.78;6124404;23;20324;-91
2024/03/10 00:29:37;;;;;;;;;;;;;;;6.91;69.50;96543.63;6099291;23;20006;-91
2024/03/10 00:32:06;;;;;;;0.80;0.80;;;;;;;6.54;70.88;96531.81;6122895;23;19909;-92
2024/03/10 00:34:34;;;;;;;0.80;0.80;;;;;;;6.28;71.89;96531.56;6124522;23;20064;-94
2024/03/10 00:37:01;;;;;;;0.90;0.90;;;;;;;6.10;73.06;96528.72;6124510;23;20719;-91
2024/03/10 00:39:26;;;;;;;0.80;0.80;;;;;;;5.89;73.99;96538.16;6134570;23;20018;-89
2024/03/10 00:41:53;;;;;;;0.80;0.80;;;;;;;5.88;74.71;96533.72;6124898;23;20048;-91
2024/03/10 00:44:19;;;;;;;0.80;0.80;;;;;;;5.86;74.69;96531.94;6123307;23;20021;-90
2024/03/10 00:46:45;;;;;;;0.80;0.80;;;;;;;5.94;73.68;96527.66;6123287;23;20014;-92
2024/03/10 00:49:10;;;;;;;0.80;0.80;;;;;;;6.22;71.96;96523.53;6098581;23;20632;-92
2024/03/10 00:51:41;;;;;;;0.70;0.70;;;;;;;6.30;71.50;96520.97;6125128;23;20017;-91
2024/03/10 00:54:06;;;;;;;;;;;;;;;6.42;71.14;96519.34;6099344;23;20016;-94
2024/03/10 00:56:31;;;;;;;0.80;0.80;;;;;;;6.53;70.62;96519.44;6122814;23;20245;-91
2024/03/10 00:58:57;;;;;;;0.80;0.80;;;;;;;6.60;70.34;96500.06;6101740;23;20010;-90
2024/03/10 01:01:22;;;;;;;0.80;0.80;;;;;;;6.53;70.29;96492.94;6101202;23;20013;-94
2024/03/10 01:03:49;;;;;;;0.77;0.77;;;;;;;6.25;71.83;96501.50;6124437;23;20022;-92
2024/03/10 01:06:15;;;;;;;0.90;0.90;;;;;;;6.05;72.32;96506.59;6126353;23;20073;-90
2024/03/10 01:08:40;;;;;;;0.80;0.80;;;;;;;6.35;70.78;96511.31;6125308;23;20203;-90
2024/03/10 01:11:08;;;;;;;0.85;0.85;;;;;;;6.32;70.73;96509.50;6149295;23;20006;-92
2024/03/10 01:13:35;;;;;;;0.80;0.80;;;;;;;6.36;70.71;96508.66;6124940;23;20013;-93
2024/03/10 01:16:00;;;;;;;0.90;0.90;;;;;;;6.72;68.47;96515.19;6124994;23;20053;-93
2024/03/10 01:18:26;;;;;;;0.80;0.80;;;;;;;6.85;68.18;96505.56;6126881;23;20022;-91
2024/03/10 01:20:52;;;;;;;0.90;0.90;;;;;;;7.06;66.40;96502.19;6125303;23;20046;-91
2024/03/10 01:23:19;;;;;;;0.80;0.80;;;;;;;7.13;65.86;96502.22;6124791;23;20014;-91
2024/03/10 01:25:45;;;;;;;0.90;0.90;;;;;;;6.90;67.01;96499.44;6100777;23;20372;-93
2024/03/10 01:28:11;;;;;;;0.70;0.70;;;;;;;6.92;66.96;96510.03;6100980;23;20105;-92
2024/03/10 01:30:39;;;;;;;0.80;0.80;;;;;;;7.25;64.67;96498.78;6100550;23;20018;-93
2024/03/10 01:33:04;;;;;;;;;;;;;;;7.39;64.23;96486.47;6123829;23;20104;-91
2024/03/10 01:35:30;;;;;;;0.70;0.70;;;;;;;7.35;64.47;96479.38;6124541;23;19919;-91
2024/03/10 01:37:55;;;;;;;0.70;0.70;;;;;;;7.55;63.86;96481.25;6124512;23;20076;-89
2024/03/10 01:40:22;;;;;;;0.80;0.80;;;;;;;7.33;64.12;96480.25;6124544;23;20016;-92
2024/03/10 01:42:55;;;;;;;0.80;0.80;;;;;;;7.40;64.26;96479.41;6124722;23;20085;-91
2024/03/10 01:45:21;;;;;;;0.70;0.70;;;;;;;7.40;64.08;96475.00;6124825;23;20018;-92
2024/03/10 01:47:47;;;;;;;0.80;0.80;;;;;;;7.36;64.35;96475.84;6124709;23;20068;-90
2024/03/10 01:50:13;;;;;;;0.70;0.70;;;;;;;7.11;66.20;96473.94;6125912;23;20018;-92
2024/03/10 01:52:40;;;;;;;0.70;0.70;;;;;;;6.91;67.07;96480.00;6126053;23;20053;-94
2024/03/10 01:55:06;;;;;;;0.70;0.70;;;;;;;6.69;68.17;96475.41;6125828;23;20075;-92
2024/03/10 01:57:32;;;;;;;0.80;0.80;;;;;;;6.83;66.64;96465.78;6126113;23;20013;-92
2024/03/10 02:00:00;;;;;;;0.70;0.70;;;;;;;6.99;65.48;96460.59;6125450;23;20410;-89
2024/03/10 02:02:26;;;;;;;0.70;0.70;;;;;;;6.93;66.48;96457.03;6099210;23;20069;-90
2024/03/10 02:04:51;;;;;;;0.80;0.80;;;;;;;6.80;66.95;96463.13;6098519;23;20010;-92
2024/03/10 02:07:17;;;;;;;0.70;0.70;;;;;;;6.81;65.97;96462.25;6121508;23;20041;-92
2024/03/10 02:09:44;;;;;;;0.70;0.70;;;;;;;6.58;69.03;96459.44;6122983;23;20018;-91
2024/03/10 02:12:11;;;;;;;0.70;0.70;;;;;;;6.29;71.09;96453.88;6124314;23;20045;-90
2024/03/10 02:14:40;;;;;;;0.80;0.80;;;;;;;6.14;71.87;96451.09;6100189;23;20036;-89
2024/03/10 02:17:10;;;;;;;0.70;0.70;;;;;;;5.87;72.70;96456.97;6126593;23;20016;-91
2024/03/10 02:19:36;;;;;;;0.63;0.63;;;;;;;5.67;73.54;96451.47;6126050;23;20037;-91
2024/03/10 02:22:02;;;;;;;0.80;0.80;;;;;;;5.49;74.47;96456.53;6129497;23;20061;-91
2024/03/10 02:24:33;;;;;;;;;;;;;;;5.34;75.24;96460.75;6135009;23;20022;-91
2024/03/10 02:27:00;;;;;;;0.80;0.80;;;;;;;5.23;75.52;96459.75;6131194;23;20128;-90
2024/03/10 02:29:26;;;;;;;0.90;0.90;;;;;;;5.34;75.59;96450.19;6134178;23;20013;-92
2024/03/10 02:48:20;;;;;;;0.80;0.80;;;;;;;5.30;74.13;96421.91;6149332;23;20199;-90
2024/03/10 02:50:46;;;;;;;0.80;0.80;;;;;;;5.45;72.84;96412.41;6148294;23;20106;-92
2024/03/10 02:53:13;;;;;;;0.70;0.70;;;;;;;5.96;70.32;96400.63;6144703;23;20312;-90
2024/03/10 02:55:38;;;;;;;0.80;0.80;;;;;;;6.90;63.74;96390.75;6144830;23;20010;-89
2024/03/10 02:58:05;;;;;;;0.90;0.90;;;;;;;7.39;61.38;96385.69;6145969;23;20014;-90
2024/03/10 03:00:38;;;;;;;0.80;0.80;;;;;;;8.09;58.50;96378.75;6121624;23;20013;-92
2024/03/10 03:03:08;;;;;;;0.80;0.80;;;;;;;8.64;54.98;96374.34;6145502;23;20010;-92
2024/03/10 03:05:39;;;;;;;0.70;0.70;;;;;;;8.47;55.61;96374.34;6138511;23;20426;-93
2024/03/10 03:08:07;;;;;;;0.80;0.80;;;;;;;8.66;55.42;96371.69;6132209;23;20009;-93
2024/03/10 03:10:33;;;;;;;0.75;0.75;;;;;;;8.85;54.17;96369.88;6129553;23;20572;-91
2024/03/10 03:12:58;;;;;;;0.70;0.70;;;;;;;8.86;54.45;96366.31;6127567;23;20017;-93
2024/03/10 03:15:24;;;;;;;0.80;0.80;;;;;;;8.80;54.74;96363.69;6127213;23;20009;-94
2024/03/10 03:17:51;;;;;;;0.70;0.70;;;;;;;8.87;55.17;96365.47;6126947;23;20101;-93
2024/03/10 03:20:17;;;;;;;0.70;0.70;;;;;;;8.67;55.69;96358.41;6126992;23;20045;-91
2024/03/10 03:22:46;;;;;;;0.80;0.80;;;;;;;8.70;55.79;96358.38;6132719;23;20013;-92
2024/03/10 03:25:17;;;;;;;0.80;0.80;;;;;;;8.89;54.62;96353.91;6132905;23;20101;-91
2024/03/10 03:27:50;;;;;;;0.70;0.70;;;;;;;8.62;55.69;96361.94;6108054;23;20022;-91
2024/03/10 03:30:16;;;;;;;0.70;0.70;;;;;;;8.45;56.40;96356.66;6133232;23;20092;-90
2024/03/10 03:32:42;;;;;;;0.80;0.80;;;;;;;8.77;54.86;96351.31;6106387;23;20854;-90
2024/03/10 03:35:10;;;;;;;0.70;0.70;;;;;;;8.74;54.94;96357.50;6162796;23;20013;-91
2024/03/10 03:37:36;;;;;;;0.70;0.70;;;;;;;8.64;55.53;96352.22;6130989;23;20510;-90
2024/03/10 03:40:05;;;;;;;0.70;0.70;;;;;;;8.53;56.10;96349.56;6107983;23;20458;-91
2024/03/10 03:42:30;;;;;;;0.70;0.70;;;;;;;8.17;57.53;96332.72;6103689;23;20012;-92
2024/03/10 03:44:55;;;;;;;0.75;0.75;;;;;;;8.09;58.32;96331.81;6128103;23;20022;-92
2024/03/10 03:47:21;;;;;;;0.70;0.70;;;;;;;8.18;57.55;96344.22;6125600;23;20065;-93
2024/03/10 03:49:46;;;;;;;0.70;0.70;;;;;;;8.24;57.82;96341.59;6125024;23;20025;-92
2024/03/10 03:52:12;;;;;;;0.70;0.70;;;;;;;8.29;57.60;96339.81;6124749;23;20014;-92
2024/03/10 03:54:41;;;;;;;0.70;0.70;;;;;;;8.03;58.48;96352.19;6126026;23;20010;-93
2024/03/10 03:57:07;;;;;;;0.80;0.80;;;;;;;7.75;59.69;96338.88;6099793;23;20073;-91
2024/03/10 03:59:33;;;;;;;0.80;0.80;;;;;;;7.50;60.83;96337.06;6125524;23;20048;-93
2024/03/10 04:01:59;;;;;;;0.80;0.80;;;;;;;7.78;59.43;96325.63;6125237;23;20331;-93
2024/03/10 04:04:25;;;;;;;0.77;0.77;;;;;;;7.52;60.41;96314.06;6124263;23;20455;-93
2024/03/10 04:06:50;;;;;;;0.70;0.70;;;;;;;7.68;59.28;96300.84;6124565;23;20001;-93
2024/03/10 04:09:17;;;;;;;0.80;0.80;;;;;;;7.53;60.46;96307.91;6123348;23;20424;-91
2024/03/10 04:11:42;;;;;;;0.90;0.90;;;;;;;7.81;59.45;96303.50;6124186;23;20068;-93
2024/03/10 04:14:08;;;;;;;0.80;0.80;;;;;;;8.08;58.02;96302.63;6125878;23;20077;-93
2024/03/10 04:16:36;;;;;;;0.70;0.70;;;;;;;7.96;58.69;96292.91;6124036;23;20057;-94
2024/03/10 04:19:04;;;;;;;0.80;0.80;;;;;;;8.25;57.38;96289.34;6125606;23;20084;-92
2024/03/10 04:21:33;;;;;;;0.70;0.70;;;;;;;8.19;57.35;96284.91;6124572;23;20092;-92
2024/03/10 04:23:59;;;;;;;0.80;0.80;;;;;;;8.15;57.73;96275.19;6122739;23;20045;-93
2024/03/10 04:26:27;;;;;;;0.70;0.70;;;;;;;8.13;57.32;96271.63;6101359;23;20358;-92
2024/03/10 04:28:54;;;;;;;0.70;0.70;;;;;;;8.05;57.61;96261.03;6126083;23;20017;-93
2024/03/10 04:31:20;;;;;;;0.75;0.75;;;;;;;7.63;58.81;96253.97;6126302;23;20033;-93
2024/03/10 04:33:45;;;;;;;0.70;0.70;;;;;;;7.76;58.81;96247.78;6128927;23;20116;-93
2024/03/10 04:36:12;;;;;;;0.70;0.70;;;;;;;7.81;58.75;96240.72;6128591;23;20012;-93
2024/03/10 04:38:39;;;;;;;0.80;0.80;;;;;;;7.80;57.83;96246.00;6149135;23;20100;-90
2024/03/10 04:41:05;;;;;;;0.80;0.80;;;;;;;7.93;58.17;96240.69;6127889;23;20439;-94
2024/03/10 04:43:31;;;;;;;0.80;0.80;;;;;;;7.68;58.64;96247.78;6102706;23;20045;-91
2024/03/10 04:45:57;;;;;;;0.80;0.80;;;;;;;7.66;59.49;96245.97;6130464;23;20006;-92
2024/03/10 04:48:23;;;;;;;0.80;0.80;;;;;;;7.84;58.25;96245.13;6129659;23;20010;-93
2024/03/10 04:50:49;;;;;;;0.80;0.80;;;;;;;7.56;59.77;96254.81;6124676;23;20014;-92
2024/03/10 04:53:15;;;;;;;0.80;0.80;;;;;;;7.45;59.91;96261.00;6125402;23;20009;-91
2024/03/10 04:55:40;;;;;;;0.80;0.80;;;;;;;7.57;59.35;96264.56;6124406;23;20070;-91
2024/03/10 04:58:08;;;;;;;0.80;0.80;;;;;;;7.63;59.43;96269.88;6099536;23;20014;-94
2024/03/10 05:00:34;;;;;;;0.70;0.70;;;;;;;7.70;58.70;96269.00;6124332;23;20014;-93
2024/03/10 05:03:05;;;;;;;0.90;0.90;;;;;;;7.72;58.06;96267.25;6130921;23;20013;-91
2024/03/10 05:05:33;;;;;;;0.80;0.80;;;;;;;7.69;59.05;96262.81;6129586;23;20228;-92
2024/03/10 05:08:00;;;;;;;0.73;0.73;;;;;;;7.61;59.30;96263.69;6123293;23;20021;-93
2024/03/10 05:10:25;;;;;;;0.80;0.80;;;;;;;7.42;59.65;96261.00;6129352;23;20010;-91
2024/03/10 05:12:51;;;;;;;0.80;0.80;;;;;;;7.38;60.34;96255.72;6117091;23;20014;-91
2024/03/10 05:15:17;;;;;;;0.80;0.80;;;;;;;7.41;60.11;96261.00;6120549;23;20020;-89
2024/03/10 05:17:43;;;;;;;0.80;0.80;;;;;;;7.44;59.60;96263.66;6144371;23;20002;-89
2024/03/10 05:20:11;;;;;;;0.80;0.80;;;;;;;7.55;59.57;96269.88;6146298;23;20006;-89
2024/03/10 05:22:39;;;;;;;0.70;0.70;;;;;;;7.61;58.93;96263.69;6135677;23;20021;-91
2024/03/10 05:25:05;;;;;;;;;;;;;;;7.71;58.78;96266.38;6142431;23;20013;-89
2024/03/10 05:27:32;;;;;;;0.80;0.80;;;;;;;7.46;59.62;96260.13;6141629;23;19912;-90
2024/03/10 05:29:57;;;;;;;0.90;0.90;;;;;;;7.48;59.54;96272.53;6135147;23;20320;-93
2024/03/10 05:32:22;;;;;;;0.80;0.80;;;;;;;7.45;59.83;96270.75;6130168;23;20013;-90
2024/03/10 05:34:48;;;;;;;0.80;0.80;;;;;;;7.22;60.17;96273.34;6129408;23;20117;-91
2024/03/10 05:37:13;;;;;;;0.70;0.70;;;;;;;7.13;60.78;96262.69;6123644;23;20010;-94
2024/03/10 05:39:39;;;;;;;0.70;0.70;;;;;;;7.24;59.58;96255.69;6124297;23;20041;-90
2024/03/10 05:42:05;;;;;;;0.80;0.80;;;;;;;7.40;59.25;96260.13;6124661;23;20018;-91
2024/03/10 05:44:33;;;;;;;0.80;0.80;;;;;;;7.47;58.70;96253.03;6123933;23;20017;-91
2024/03/10 05:47:02;;;;;;;0.80;0.80;;;;;;;7.56;58.68;96270.75;6123935;23;20465;-92
2024/03/10 05:49:28;;;;;;;0.80;0.80;;;;;;;7.58;58.13;96255.72;6123695;23;20013;-91
2024/03/10 05:51:54;;;;;;;0.70;0.70;;;;;;;7.55;58.16;96258.38;6125079;23;20014;-93
2024/03/10 05:54:21;;;;;;;0.70;0.70;;;;;;;7.42;58.57;96261.00;6124118;23;20040;-93
2024/03/10 05:56:47;;;;;;;0.80;0.80;;;;;;;7.01;60.64;96268.88;6125095;23;20045;-92
2024/03/10 05:59:13;;;;;;;0.70;0.70;;;;;;;6.71;61.17;96274.94;6124446;23;20006;-93
2024/03/10 06:01:40;;;;;;;0.80;0.80;;;;;;;6.34;62.29;96280.03;6125187;23;20501;-92
2024/03/10 06:04:06;;;;;;;0.80;0.80;;;;;;;6.60;61.33;96285.47;6100701;23;20014;-93
2024/03/10 06:06:33;;;;;;;0.80;0.80;;;;;;;6.79;61.10;96288.22;6125967;23;20049;-92
2024/03/10 06:09:15;;;;;;;0.80;0.80;;;;;;;6.53;62.08;96296.03;6126106;23;20093;-92
2024/03/10 06:11:56;;;;;;;0.80;0.80;;;;;;;6.19;63.24;96308.19;6119064;23;20025;-91
2024/03/10 06:14:30;;;;;;;0.70;0.70;;;;;;;6.11;63.54;96302.81;6124319;23;20046;-91
2024/03/10 06:17:08;;;;;;;0.70;0.70;;;;;;;6.22;63.72;96309.06;6100704;23;20018;-92
2024/03/10 06:25:27;;;;;;;0.90;0.90;;;;;;;7.08;60.00;96304.22;6125247;23;20006;-91
2024/03/10 06:28:04;;;;;;;0.80;0.80;;;;;;;6.82;61.14;96305.03;6128062;23;20017;-92
2024/03/10 06:30:35;;;;;;;0.80;0.80;;;;;;;6.70;62.08;96297.00;6126789;23;20398;-94
2024/03/10 06:33:00;;;;;;;0.80;0.80;;;;;;;6.66;62.53;96287.28;6126288;23;20010;-94
2024/03/10 06:35:26;;;;;;;0.80;0.80;;;;;;;6.92;61.29;96275.03;6133073;23;20156;-94
2024/03/10 06:37:51;;;;;;;0.80;0.80;;;;;;;6.92;60.23;96264.41;6136406;23;20006;-89
2024/03/10 06:40:17;;;;;;;0.90;0.90;;;;;;;6.78;61.27;96260.81;6138742;23;20248;-93
2024/03/10 06:42:44;;;;;;;0.80;0.80;;;;;;;6.79;60.75;96267.88;6119861;23;20026;-89
2024/03/10 06:45:10;;;;;;;0.77;0.77;;;;;;;6.98;60.05;96271.50;6143059;23;20025;-90
2024/03/10 06:47:36;;;;;;;0.70;0.70;;;;;;;7.33;58.95;96268.03;6130929;23;20018;-93
2024/03/10 06:50:04;;;;;;;0.80;0.80;;;;;;;7.33;58.57;96271.63;6127709;23;20045;-92
2024/03/10 06:52:31;;;;;;;0.77;0.77;;;;;;;7.50;58.21;96265.44;6135794;23;20001;-89
2024/03/10 06:55:00;;;;;;;0.80;0.80;;;;;;;7.73;57.10;96266.34;6115453;23;20490;-90
2024/03/10 06:57:31;;;;;;;0.80;0.80;;;;;;;7.65;57.59;96261.03;6141369;23;20018;-90
2024/03/10 07:00:00;;;;;;;0.90;0.90;;;;;;;7.74;57.40;96269.88;6119416;23;20101;-90
2024/03/10 07:02:26;;;;;;;0.80;0.80;;;;;;;7.91;56.30;96246.91;6119766;23;20013;-91
2024/03/10 07:04:52;;;;;;;0.85;0.85;;;;;;;7.95;56.38;96235.34;6148106;23;20018;-88
2024/03/10 07:07:17;;;;;;;0.70;0.70;;;;;;;7.87;56.71;96246.00;6122234;23;20012;-90
2024/03/10 07:09:43;;;;;;;0.80;0.80;;;;;;;7.87;56.68;96248.66;6123299;23;20057;-89
2024/03/10 07:12:08;;;;;;;0.80;0.80;;;;;;;7.93;56.21;96261.03;6150487;23;20005;-88
2024/03/10 07:14:36;;;;;;;0.80;0.80;;;;;;;8.06;55.17;96251.31;6149260;23;20006;-89
2024/03/10 07:17:03;;;;;;;0.80;0.80;;;;;;;8.06;55.59;96241.56;6148756;23;20001;-93
2024/03/10 07:19:29;;;;;;;0.88;0.88;;;;;;;7.90;56.48;96245.97;6147877;23;20050;-91
2024/03/10 07:21:54;;;;;;;0.80;0.80;;;;;;;7.80;57.18;96253.94;6147844;23;20038;-88
2024/03/10 07:24:20;;;;;;;0.90;0.90;;;;;;;7.90;56.71;96245.97;6140119;23;20024;-94
2024/03/10 07:26:45;;;;;;;0.80;0.80;;;;;;;7.81;57.09;96247.75;6133854;23;20040;-93
2024/03/10 07:29:12;;;;;;;0.70;0.70;;;;;;;7.81;57.39;96232.75;6131673;23;20008;-93
2024/03/10 07:31:38;;;;;;;0.70;0.70;;;;;;;7.72;57.61;96220.34;6130127;23;20063;-89
2024/03/10 07:34:03;;;;;;;0.77;0.77;;;;;;;7.77;56.69;96211.50;6127685;23;20252;-91
2024/03/10 07:36:29;;;;;;;0.70;0.70;;;;;;;7.75;57.44;96226.53;6126716;23;20102;-93
2024/03/10 07:38:57;;;;;;;0.80;0.80;;;;;;;7.84;56.93;96222.09;6126176;23;20013;-93
2024/03/10 07:41:22;;;;;;;0.80;0.80;;;;;;;7.85;57.26;96223.88;6124466;23;20010;-92
2024/03/10 07:43:48;;;;;;;0.80;0.80;;;;;;;7.97;56.24;96215.91;6099242;23;20018;-92
2024/03/10 07:46:16;;;;;;;0.70;0.70;;;;;;;7.86;57.14;96227.44;6124307;23;20013;-93
2024/03/10 07:48:43;;;;;;;0.70;0.70;;;;;;;7.86;57.23;96216.81;6125023;23;20727;-91
2024/03/10 07:51:08;;;;;;;0.80;0.80;;;;;;;7.90;56.97;96216.78;6124451;23;20097;-92
2024/03/10 07:53:34;;;;;;;0.80;0.80;;;;;;;8.07;56.23;96200.84;6123980;23;20267;-91
2024/03/10 07:55:59;;;;;;;0.70;0.70;;;;;;;8.10;56.55;96197.31;6123323;23;20041;-91
2024/03/10 07:58:27;;;;;;;0.77;0.77;;;;;;;8.09;56.63;96200.81;6122218;23;20012;-93
2024/03/10 08:00:57;;;;;;;0.82;0.82;;;;;;;8.20;56.15;96197.28;6099476;23;20814;-95
2024/03/10 08:03:22;;;;;;;0.90;0.90;;;;;;;8.26;56.00;96201.69;6098207;23;20014;-91
2024/03/10 08:05:49;;;;;;;0.80;0.80;;;;;;;8.33;55.95;96227.31;6127601;23;20017;-91
2024/03/10 08:08:15;;;;;;;0.80;0.80;;;;;;;8.38;55.96;96233.53;6100815;23;20403;-92
2024/03/10 08:10:43;;;;;;;0.90;0.90;;;;;;;8.42;56.64;96243.28;6125470;23;20013;-92
2024/03/10 08:13:11;;;;;;;0.90;0.90;;;;;;;8.69;55.44;96247.63;6125912;23;20016;-92
2024/03/10 08:15:45;;;;;;;0.70;0.70;;;;;;;8.87;54.53;96243.16;6124088;23;20022;-90
2024/03/10 08:18:14;;;;;;;0.80;0.80;;;;;;;9.25;53.73;96241.19;6051326;23;20030;-90
2024/03/10 08:20:48;;;;;;;0.70;0.70;;;;;;;9.33;53.36;96243.78;6102266;23;20067;-89
2024/03/10 08:23:18;;;;;;;0.80;0.80;;;;;;;9.98;51.68;96247.75;6101501;23;20390;-93
2024/03/10 08:25:48;;;;;;;0.70;0.70;;;;;;;9.67;52.01;96233.78;6104110;23;20010;-92
2024/03/10 08:28:15;;;;;;;0.60;0.60;;;;;;;9.98;51.92;96244.19;6150698;23;20061;-94
2024/03/10 08:30:41;;;;;;;0.70;0.70;;;;;;;10.16;51.46;96232.50;6127474;23;20012;-92
2024/03/10 08:33:07;;;;;;;0.70;0.70;;;;;;;9.93;51.62;96230.94;6100835;23;20095;-92
2024/03/10 08:35:35;;;;;;;0.70;0.70;;;;;;;9.87;51.57;96217.66;6102060;23;20760;-91
2024/03/10 08:38:00;;;;;;;0.60;0.60;;;;;;;9.80;51.66;96213.28;6127780;23;20108;-91
2024/03/10 08:40:26;;;;;;;0.60;0.60;;;;;;;9.86;51.41;96213.22;6101963;23;20017;-89
2024/03/10 08:42:52;;;;;;;0.60;0.60;;;;;;;10.03;51.46;96216.63;6125551;23;20359;-92
2024/03/10 08:45:19;;;;;;;0.70;0.70;;;;;;;10.17;51.27;96197.84;6099021;23;20014;-91
2024/03/10 08:47:45;;;;;;;0.60;0.60;;;;;;;9.95;51.91;96196.28;6123927;23;20010;-92
2024/03/10 08:50:16;;;;;;;0.70;0.70;;;;;;;9.88;51.27;96178.59;6122513;23;20114;-92
2024/03/10 08:52:56;;;;;;;0.70;0.70;;;;;;;10.00;51.24;96168.69;6125044;23;20328;-91
2024/03/10 08:55:32;;;;;;;0.60;0.60;;;;;;;10.78;49.06;96174.97;6124250;23;20013;-91
2024/03/10 08:57:59;;;;;;;0.60;0.60;;;;;;;10.78;49.22;96180.31;6122870;23;20037;-93
2024/03/10 09:00:25;;;;;;;0.60;0.60;;;;;;;10.95;49.81;96180.94;6098645;23;20648;-92
2024/03/10 09:02:50;;;;;;;0.60;0.60;;;;;;;10.81;49.77;96182.03;6122811;23;20006;-91
2024/03/10 09:05:16;;;;;;;0.60;0.60;;;;;;;10.12;51.84;96177.47;6125173;23;20021;-93
2024/03/10 09:07:42;;;;;;;0.60;0.60;;;;;;;10.40;51.17;96180.78;6098752;23;20013;-96
2024/03/10 09:10:09;;;;;;;0.70;0.70;;;;;;;10.17;50.98;96188.97;6100210;23;20017;-93
2024/03/10 09:12:34;;;;;;;0.50;0.50;;;;;;;10.26;50.70;96187.13;6099529;23;20014;-91
2024/03/10 09:15:00;;;;;;;0.70;0.70;;;;;;;10.48;50.75;96171.75;6075257;23;20018;-92
2024/03/10 09:17:26;;;;;;;0.60;0.60;;;;;;;10.20;51.07;96156.94;6126959;23;20010;-91
2024/03/10 09:19:51;;;;;;;0.70;0.70;;;;;;;10.30;51.51;96145.34;6124053;23;20037;-93
2024/03/10 09:22:17;;;;;;;0.70;0.70;;;;;;;10.86;50.00;96133.06;6122504;23;20485;-92
2024/03/10 09:24:48;;;;;;;0.60;0.60;;;;;;;10.81;49.36;96137.56;6099595;23;20017;-91
2024/03/10 09:27:19;;;;;;;0.70;0.70;;;;;;;10.66;49.58;96159.13;6101021;23;20395;-93
2024/03/10 09:29:46;;;;;;;0.70;0.70;;;;;;;10.88;49.59;96167.75;6123837;23;20010;-93
2024/03/10 09:32:15;;;;;;;0.60;0.60;;;;;;;10.75;50.13;96196.34;6131183;23;20017;-93
2024/03/10 09:34:42;;;;;;;0.70;0.70;;;;;;;11.29;48.72;96204.50;6132459;23;20058;-91
2024/03/10 09:37:08;;;;;;;0.70;0.70;;;;;;;12.00;47.92;96215.88;6131686;23;20017;-93
2024/03/10 09:39:34;;;;;;;0.60;0.60;;;;;;;11.96;48.06;96208.81;6133361;23;20006;-89
2024/03/10 09:42:01;;;;;;;0.60;0.60;;;;;;;11.29;48.91;96225.84;6140638;23;20028;-93
2024/03/10 09:44:29;;;;;;;0.60;0.60;;;;;;;11.34;49.19;96232.00;6143628;23;20026;-91
2024/03/10 09:46:55;;;;;;;0.60;0.60;;;;;;;12.11;47.10;96242.41;6140453;23;20017;-89
2024/03/10 09:49:25;;;;;;;0.50;0.50;;;;;;;12.94;44.48;96235.56;6139252;23;20037;-90
2024/03/10 09:51:53;;;;;;;0.60;0.60;;;;;;;12.68;46.47;96239.59;6138988;23;20020;-92
2024/03/10 09:54:23;;;;;;;0.55;0.55;;;;;;;12.69;46.22;96233.34;6135978;23;20006;-91
2024/03/10 09:56:52;;;;;;;0.50;0.50;;;;;;;12.91;46.36;96223.09;6135766;23;20080;-93
2024/03/10 09:59:58;;;;;;;0.50;0.50;;;;;;;13.18;45.17;96212.75;6129258;23;20021;-92
2024/03/10 10:02:34;;;;;;;0.60;0.60;;;;;;;13.30;44.66;96207.13;6042628;23;20123;-91
2024/03/10 10:05:06;;;;;;;0.60;0.60;;;;;;;12.83;45.71;96200.97;6114559;23;20018;-91
2024/03/10 10:07:34;;;;;;;0.50;0.50;;;;;;;13.15;44.58;96186.91;6128400;23;20029;-92
2024/03/10 10:10:04;;;;;;;0.60;0.60;;;;;;;13.12;45.18;96188.75;6126759;23;20346;-93
2024/03/10 10:12:31;;;;;;;0.50;0.50;;;;;;;12.34;45.34;96183.22;6129136;23;20013;-91
2024/03/10 10:14:56;;;;;;;0.50;0.50;;;;;;;12.45;45.69;96178.53;6101061;23;20033;-93
2024/03/10 10:17:25;;;;;;;0.60;0.60;;;;;;;12.26;46.71;96177.09;6126605;23;20076;-91
2024/03/10 10:19:55;;;;;;;0.50;0.50;;;;;;;12.58;46.53;96185.41;6129908;23;20101;-91
2024/03/10 10:22:21;;;;;;;0.50;0.50;;;;;;;12.31;46.06;96201.97;6106258;23;20393;-94
2024/03/10 10:25:03;;;;;;;0.50;0.50;;;;;;;12.37;46.04;96209.91;6103217;23;20017;-92
2024/03/10 10:27:33;;;;;;;0.60;0.60;;;;;;;12.54;46.18;96199.75;6104565;23;20018;-92
2024/03/10 10:29:59;;;;;;;0.50;0.50;;;;;;;12.26;47.06;96187.81;6126456;23;20049;-92
2024/03/10 10:32:25;;;;;;;0.50;0.50;;;;;;;12.15;46.86;96179.09;6126933;23;20009;-89
2024/03/10 10:34:52;;;;;;;0.60;0.60;;;;;;;12.36;47.45;96178.72;6127720;23;20081;-90
2024/03/10 10:37:20;;;;;;;0.60;0.60;;;;;;;12.28;47.44;96175.31;6130487;23;20010;-92
2024/03/10 10:39:46;;;;;;;0.47;0.47;;;;;;;12.45;47.12;96183.00;6135778;23;20021;-92
2024/03/10 10:42:12;;;;;;;0.50;0.50;;;;;;;12.53;46.95;96194.44;6112347;23;20029;-89
2024/03/10 10:44:40;;;;;;;0.60;0.60;;;;;;;11.89;48.20;96185.81;6141955;23;20058;-91
2024/03/10 10:47:08;;;;;;;0.60;0.60;;;;;;;12.31;47.53;96173.47;6115082;23;20013;-91
2024/03/10 10:49:34;;;;;;;0.60;0.60;;;;;;;12.70;46.65;96176.28;6135826;23;20021;-92
2024/03/10 10:52:02;;;;;;;0.60;0.60;;;;;;;12.31;47.31;96157.44;6085542;23;20113;-90
2024/03/10 10:54:29;;;;;;;0.60;0.60;;;;;;;11.84;48.57;96168.97;6103281;23;20041;-91
2024/03/10 10:57:00;;;;;;;0.50;0.50;;;;;;;12.40;47.53;96171.50;6128353;23;20005;-91
2024/03/10 10:59:27;;;;;;;0.50;0.50;;;;;;;12.20;47.96;96166.53;6154028;23;20014;-90
2024/03/10 11:02:19;;;;;;;0.60;0.60;;;;;;;12.73;46.99;96172.63;6131901;23;20021;-93
2024/03/10 11:04:47;;;;;;;0.60;0.60;;;;;;;12.54;47.02;96158.75;6134922;23;20453;-90
2024/03/10 11:07:15;;;;;;;0.60;0.60;;;;;;;12.47;47.58;96158.00;6133672;23;20029;-90
2024/03/10 11:09:41;;;;;;;0.55;0.55;;;;;;;12.08;48.13;96154.31;6140888;23;20014;-90
2024/03/10 11:12:24;;;;;;;0.60;0.60;;;;;;;12.25;47.87;96162.88;6141204;23;20048;-91
2024/03/10 11:14:51;;;;;;;0.60;0.60;;;;;;;12.58;47.84;96157.78;6139504;23;20021;-90
2024/03/10 11:17:22;;;;;;;0.50;0.50;;;;;;;12.93;47.01;96157.03;6142671;23;20061;-89
2024/03/10 11:19:51;;;;;;;0.50;0.50;;;;;;;13.10;47.23;96144.19;6142927;23;20002;-89
2024/03/10 11:22:27;;;;;;;0.50;0.50;;;;;;;12.28;47.84;96132.53;6147301;23;20002;-89
2024/03/10 11:25:11;;;;;;;0.50;0.50;;;;;;;12.22;48.58;96136.22;6123480;23;20045;-89
2024/03/10 11:27:42;;;;;;;0.60;0.60;;;;;;;12.47;48.25;96136.59;6148261;23;20001;-90
2024/03/10 11:30:46;;;;;;;0.50;0.50;;;;;;;12.81;47.44;96128.75;6146423;23;20018;-89
2024/03/10 11:33:13;;;;;;;0.50;0.50;;;;;;;12.63;48.73;96142.53;6138983;23;20398;-91
2024/03/10 11:35:40;;;;;;;0.60;0.60;;;;;;;12.63;48.63;96142.53;6139810;23;20049;-90
2024/03/10 11:38:09;;;;;;;;;;;;;;;12.19;48.92;96141.59;6136875;23;20028;-94
2024/03/10 11:40:37;;;;;;;0.50;0.50;;;;;;;12.38;49.33;96147.47;6136084;23;19995;-92
2024/03/10 11:43:06;;;;;;;0.50;0.50;;;;;;;12.16;49.20;96144.31;6129527;23;20293;-89
2024/03/10 11:45:34;;;;;;;0.60;0.60;;;;;;;12.37;48.86;96134.16;6132605;23;20019;-91
2024/03/10 11:48:00;;;;;;;0.60;0.60;;;;;;;12.47;48.83;96139.28;6131262;23;20020;-92
2024/03/10 11:50:29;;;;;;;0.50;0.50;;;;;;;12.21;50.29;96145.13;6132984;23;20018;-92
2024/03/10 11:52:54;;;;;;;0.50;0.50;;;;;;;12.41;48.80;96141.19;6133164;23;20104;-91
2024/03/10 11:55:21;;;;;;;0.60;0.60;;;;;;;12.79;48.80;96135.94;6108482;23;20017;-93
2024/03/10 11:57:53;;;;;;;0.50;0.50;;;;;;;12.42;48.56;96138.50;6132932;23;20006;-91
2024/03/10 12:00:21;;;;;;;0.50;0.50;;;;;;;12.68;48.40;96137.06;6131147;23;20022;-91
2024/03/10 12:02:54;;;;;;;0.60;0.60;;;;;;;13.09;47.90;96144.22;6108177;23;20014;-89
2024/03/10 12:05:19;;;;;;;0.43;0.43;;;;;;;13.31;47.28;96156.22;6106934;23;20020;-92